createdAt,value
2022-08-21T00:01:14.978Z,6.97
2022-08-21T00:05:00.959Z,7.63
2022-08-21T00:08:53.001Z,6.82
2022-08-21T00:12:38.973Z,7.15
2022-08-21T00:16:24.031Z,7.82
2022-08-21T00:20:11.998Z,7.60
2022-08-21T00:23:57.049Z,7.40
2022-08-21T00:27:41.987Z,7.68
2022-08-21T00:31:33.984Z,6.93
2022-08-21T00:35:23.001Z,7.27
2022-08-21T00:39:09.076Z,7.28
2022-08-21T00:42:54.077Z,6.93
2022-08-21T00:46:45.966Z,7.55
2022-08-21T00:50:34.981Z,7.00
2022-08-21T00:54:29.015Z,8.93
2022-08-21T00:58:17.443Z,7.25
2022-08-21T01:02:10.011Z,8.90
2022-08-21T01:05:54.992Z,7.53
2022-08-21T01:09:46.982Z,7.40
2022-08-21T01:13:33.020Z,7.10
2022-08-21T01:17:27.003Z,7.13
2022-08-21T01:21:21.010Z,7.53
2022-08-21T01:25:12.997Z,7.18
2022-08-21T01:29:07.029Z,8.50
2022-08-21T01:32:59.227Z,8.83
2022-08-21T01:36:37.535Z,8.87
2022-08-21T01:40:31.016Z,8.40
2022-08-21T01:44:16.012Z,8.52
2022-08-21T01:48:01.076Z,8.98
2022-08-21T01:51:46.069Z,7.70
2022-08-21T01:55:38.021Z,8.05
2022-08-21T01:59:16.517Z,7.38
2022-08-21T02:03:08.025Z,8.02
2022-08-21T02:06:53.031Z,7.90
2022-08-21T02:10:39.091Z,7.60
2022-08-21T02:14:32.742Z,6.50
2022-08-21T02:18:25.047Z,6.67
2022-08-21T02:22:03.512Z,6.17
2022-08-21T02:25:56.085Z,6.63
2022-08-21T02:29:41.047Z,6.85
2022-08-21T02:33:34.062Z,6.13
2022-08-21T02:37:20.032Z,8.20
2022-08-21T02:41:12.075Z,7.95
2022-08-21T02:44:57.079Z,5.93
2022-08-21T02:48:43.113Z,6.53
2022-08-21T02:52:29.079Z,6.17
2022-08-21T02:56:17.178Z,6.10
2022-08-21T03:00:02.070Z,6.15
2022-08-21T03:04:00.067Z,5.82
2022-08-21T03:07:38.614Z,5.43
2022-08-21T03:11:31.158Z,4.40
2022-08-21T03:15:20.050Z,4.18
2022-08-21T03:19:05.575Z,4.25
2022-08-21T03:22:56.391Z,6.23
2022-08-21T03:26:48.071Z,4.32
2022-08-21T03:30:33.089Z,4.97
2022-08-21T03:34:18.134Z,4.20
2022-08-21T03:38:03.102Z,5.00
2022-08-21T03:41:55.066Z,4.80
2022-08-21T03:45:40.085Z,5.05
2022-08-21T03:49:25.173Z,4.53
2022-08-21T03:53:16.849Z,4.37
2022-08-21T03:57:02.190Z,3.85
2022-08-21T04:00:47.092Z,4.18
2022-08-21T04:04:40.073Z,4.55
2022-08-21T04:08:19.656Z,4.43
2022-08-21T04:12:11.103Z,4.75
2022-08-21T04:15:57.103Z,5.43
2022-08-21T04:19:42.180Z,5.78
2022-08-21T04:23:27.102Z,5.20
2022-08-21T04:27:19.094Z,4.70
2022-08-21T04:31:18.115Z,5.43
2022-08-21T04:35:14.104Z,4.95
2022-08-21T04:38:59.098Z,4.70
2022-08-21T04:43:01.077Z,4.27
2022-08-21T04:46:39.173Z,3.70
2022-08-21T04:50:39.128Z,4.07
2022-08-21T04:54:33.117Z,4.80
2022-08-21T04:58:35.099Z,4.90
2022-08-21T05:02:29.132Z,4.82
2022-08-21T05:06:15.109Z,5.50
2022-08-21T05:10:16.116Z,6.53
2022-08-21T05:14:08.154Z,6.13
2022-08-21T05:18:00.624Z,6.30
2022-08-21T05:21:55.137Z,6.43
2022-08-21T05:25:34.190Z,5.18
2022-08-21T05:29:26.121Z,5.90
2022-08-21T05:33:13.177Z,5.97
2022-08-21T05:36:58.133Z,6.10
2022-08-21T05:40:50.218Z,5.88
2022-08-21T05:44:35.128Z,6.63
2022-08-21T05:48:24.260Z,6.03
2022-08-21T05:52:10.155Z,6.47
2022-08-21T05:56:02.151Z,5.93
2022-08-21T05:59:40.709Z,6.13
2022-08-21T06:03:39.145Z,4.80
2022-08-21T06:07:24.156Z,5.10
2022-08-21T06:11:20.341Z,4.68
2022-08-21T06:15:12.164Z,4.57
2022-08-21T06:18:52.199Z,4.63
2022-08-21T06:22:44.177Z,3.83
2022-08-21T06:26:30.178Z,4.35
2022-08-21T06:30:29.160Z,4.70
2022-08-21T06:34:22.157Z,4.18
2022-08-21T06:38:07.140Z,3.97
2022-08-21T06:42:06.156Z,3.78
2022-08-21T06:46:02.171Z,4.43
2022-08-21T06:49:47.156Z,3.40
2022-08-21T06:53:39.173Z,4.10
2022-08-21T06:57:24.151Z,3.78
2022-08-21T07:01:23.224Z,3.70
2022-08-21T07:05:17.797Z,3.80
2022-08-21T07:09:04.175Z,3.80
2022-08-21T07:13:00.504Z,3.70
2022-08-21T07:16:40.265Z,3.63
2022-08-21T07:20:36.170Z,3.50
2022-08-21T07:24:21.189Z,4.77
2022-08-21T07:28:13.189Z,4.37
2022-08-21T07:31:51.316Z,4.55
2022-08-21T07:35:43.177Z,4.30
2022-08-21T07:39:21.306Z,4.07
2022-08-21T07:43:13.196Z,4.83
2022-08-21T07:46:51.316Z,6.25
2022-08-21T07:50:43.199Z,5.10
2022-08-21T07:54:33.690Z,4.87
2022-08-21T07:58:33.220Z,5.07
2022-08-21T08:02:40.176Z,5.45
2022-08-21T08:06:26.230Z,5.75
2022-08-21T08:10:18.218Z,4.80
2022-08-21T08:14:04.836Z,4.80
2022-08-21T08:17:50.221Z,5.80
2022-08-21T08:21:42.204Z,5.80
2022-08-21T08:25:22.231Z,6.07
2022-08-21T08:29:14.212Z,5.63
2022-08-21T08:32:52.686Z,5.67
2022-08-21T08:36:52.238Z,5.35
2022-08-21T08:40:48.261Z,5.43
2022-08-21T08:44:40.230Z,5.20
2022-08-21T08:48:53.606Z,5.67
2022-08-21T08:52:43.595Z,5.40
2022-08-21T08:56:35.428Z,6.45
2022-08-21T09:00:31.223Z,6.32
2022-08-21T09:04:21.241Z,6.63
2022-08-21T09:08:24.313Z,6.45
2022-08-21T09:12:23.232Z,6.68
2022-08-21T09:16:27.243Z,6.53
2022-08-21T09:20:30.340Z,6.70
2022-08-21T09:24:40.342Z,6.83
2022-08-21T09:28:27.229Z,6.85
2022-08-21T09:32:36.703Z,7.03
2022-08-21T09:36:48.269Z,6.00
2022-08-21T09:40:47.940Z,6.77
2022-08-21T09:44:46.245Z,6.07
2022-08-21T09:48:39.283Z,6.15
2022-08-21T09:52:39.247Z,6.22
2022-08-21T09:56:59.254Z,6.25
2022-08-21T10:00:48.308Z,5.63
2022-08-21T10:04:53.282Z,5.85
2022-08-21T10:08:54.263Z,5.63
2022-08-21T10:12:52.324Z,6.15
2022-08-21T10:16:40.310Z,5.93
2022-08-21T10:20:43.580Z,6.43
2022-08-21T10:24:31.721Z,5.32
2022-08-21T10:28:43.273Z,5.18
2022-08-21T10:32:46.259Z,5.47
2022-08-21T10:36:58.300Z,5.93
2022-08-21T10:40:53.326Z,5.80
2022-08-21T10:45:06.272Z,5.87
2022-08-21T10:49:05.269Z,5.40
2022-08-21T10:53:10.234Z,5.28
2022-08-21T10:56:56.278Z,5.53
2022-08-21T11:01:03.501Z,5.40
2022-08-21T11:05:12.278Z,4.73
2022-08-21T11:09:02.045Z,4.07
2022-08-21T11:12:56.301Z,4.95
2022-08-21T11:16:56.277Z,4.20
2022-08-21T11:21:05.319Z,3.93
2022-08-21T11:25:20.299Z,3.57
2022-08-21T11:29:19.301Z,3.50
2022-08-21T11:33:07.306Z,3.60
2022-08-21T11:37:13.313Z,3.03
2022-08-21T11:41:36.311Z,3.40
2022-08-21T11:45:28.419Z,2.92
2022-08-21T11:49:36.307Z,2.67
2022-08-21T11:53:37.314Z,2.85
2022-08-21T11:57:28.299Z,3.43
2022-08-21T12:01:26.325Z,2.33
2022-08-21T12:05:29.324Z,2.55
2022-08-21T12:09:39.310Z,2.45
2022-08-21T12:13:40.309Z,2.47
2022-08-21T12:17:38.320Z,2.43
2022-08-21T12:21:35.312Z,2.53
2022-08-21T12:25:32.317Z,2.42
2022-08-21T12:29:26.973Z,2.90
2022-08-21T12:33:33.351Z,2.87
2022-08-21T12:37:37.367Z,2.30
2022-08-21T12:41:36.326Z,3.03
2022-08-21T12:45:50.387Z,2.83
2022-08-21T12:49:40.393Z,2.60
2022-08-21T12:53:49.319Z,2.20
2022-08-21T12:57:38.355Z,2.47
2022-08-21T13:01:45.366Z,2.40
2022-08-21T13:05:44.359Z,2.30
2022-08-21T13:09:32.375Z,2.20
2022-08-21T13:13:35.413Z,2.20
2022-08-21T13:17:41.368Z,2.08
2022-08-21T13:21:29.346Z,2.17
2022-08-21T13:25:24.363Z,2.10
2022-08-21T13:29:16.146Z,2.35
2022-08-21T13:33:13.264Z,1.80
2022-08-21T13:36:58.390Z,1.75
2022-08-21T13:41:09.354Z,1.50
2022-08-21T13:45:01.373Z,2.00
2022-08-21T13:48:42.449Z,2.53
2022-08-21T13:52:34.395Z,2.25
2022-08-21T13:56:20.381Z,2.40
2022-08-21T14:00:24.413Z,2.30
2022-08-21T14:04:13.446Z,1.70
2022-08-21T14:08:20.409Z,1.70
2022-08-21T14:12:08.406Z,1.88
2022-08-21T14:16:28.415Z,2.00
2022-08-21T14:20:07.881Z,2.20
2022-08-21T14:24:35.746Z,2.30
2022-08-21T14:28:39.397Z,2.15
2022-08-21T14:32:37.412Z,2.00
2022-08-21T14:36:23.446Z,1.80
2022-08-21T14:40:16.482Z,1.67
2022-08-21T14:44:06.118Z,1.77
2022-08-21T14:47:55.671Z,1.85
2022-08-21T14:51:53.971Z,1.50
2022-08-21T14:56:06.435Z,1.80
2022-08-21T14:59:53.415Z,1.70
2022-08-21T15:03:52.418Z,1.63
2022-08-21T15:07:45.447Z,1.60
2022-08-21T15:11:41.488Z,1.65
2022-08-21T15:15:35.414Z,2.25
2022-08-21T15:19:20.402Z,2.20
2022-08-21T15:23:23.440Z,2.03
2022-08-21T15:27:17.446Z,2.30
2022-08-21T15:30:56.495Z,2.20
2022-08-21T15:34:48.442Z,2.28
2022-08-21T15:38:26.491Z,1.87
2022-08-21T15:42:20.430Z,2.25
2022-08-21T15:46:06.490Z,2.92
2022-08-21T15:50:05.422Z,3.10
2022-08-21T15:54:04.445Z,2.27
2022-08-21T15:58:05.300Z,2.00
2022-08-21T16:01:51.535Z,1.88
2022-08-21T16:05:43.436Z,1.77
2022-08-21T16:09:29.444Z,1.98
2022-08-21T16:13:37.457Z,2.30
2022-08-21T16:17:35.450Z,2.15
2022-08-21T16:21:21.446Z,1.90
2022-08-21T16:25:14.461Z,1.80
2022-08-21T16:29:01.475Z,2.10
2022-08-21T16:32:54.469Z,2.33
2022-08-21T16:36:40.461Z,2.10
2022-08-21T16:40:29.397Z,2.00
2022-08-21T16:44:21.467Z,2.00
2022-08-21T16:47:59.929Z,1.57
2022-08-21T16:51:51.492Z,1.80
2022-08-21T16:55:30.220Z,2.05
2022-08-21T16:59:21.485Z,1.85
2022-08-21T17:03:06.468Z,2.20
2022-08-21T17:06:52.210Z,1.90
2022-08-21T17:10:37.471Z,2.15
2022-08-21T17:14:33.477Z,1.75
2022-08-21T17:18:27.478Z,1.90
2022-08-21T17:22:07.438Z,1.70
2022-08-21T17:26:01.492Z,1.90
2022-08-21T17:29:51.486Z,1.98
2022-08-21T17:33:49.505Z,1.90
2022-08-21T17:37:29.388Z,2.10
2022-08-21T17:41:22.485Z,2.00
2022-08-21T17:45:00.593Z,1.58
2022-08-21T17:48:52.496Z,2.08
2022-08-21T17:52:37.489Z,2.33
2022-08-21T17:56:35.519Z,1.67
2022-08-21T18:00:17.572Z,1.45
2022-08-21T18:04:09.512Z,1.50
2022-08-21T18:07:54.476Z,1.50
2022-08-21T18:11:55.549Z,1.40
2022-08-21T18:15:59.517Z,1.23
2022-08-21T18:19:51.491Z,1.83
2022-08-21T18:23:44.510Z,2.95
2022-08-21T18:27:43.490Z,2.40
2022-08-21T18:31:38.563Z,1.50
2022-08-21T18:35:18.659Z,2.22
2022-08-21T18:39:34.874Z,2.05
2022-08-21T18:43:24.511Z,2.20
2022-08-21T18:47:13.578Z,2.00
2022-08-21T18:51:06.674Z,1.90
2022-08-21T18:54:44.828Z,2.22
2022-08-21T18:58:36.511Z,2.35
2022-08-21T19:02:16.150Z,1.90
2022-08-21T19:06:09.807Z,1.73
2022-08-21T19:10:27.432Z,1.98
2022-08-21T19:14:27.545Z,2.05
2022-08-21T19:18:21.395Z,1.90
2022-08-21T19:22:13.599Z,1.57
2022-08-21T19:26:01.543Z,1.33
2022-08-21T19:29:54.555Z,1.40
2022-08-21T19:33:35.954Z,1.80
2022-08-21T19:37:28.561Z,1.97
2022-08-21T19:41:17.545Z,1.50
2022-08-21T19:45:09.537Z,2.17
2022-08-21T19:48:54.565Z,1.75
2022-08-21T19:52:51.573Z,1.83
2022-08-21T19:56:44.554Z,1.50
2022-08-21T20:00:24.121Z,1.63
2022-08-21T20:08:20.770Z,1.30
2022-08-21T20:12:21.547Z,1.52
2022-08-21T20:16:15.568Z,1.40
2022-08-21T20:20:03.562Z,1.58
2022-08-21T20:23:55.567Z,1.35
2022-08-21T20:27:40.746Z,1.50
2022-08-21T20:31:27.874Z,1.33
2022-08-21T20:35:20.598Z,1.60
2022-08-21T20:39:02.247Z,1.70
2022-08-21T20:42:57.589Z,1.80
2022-08-21T20:46:42.604Z,1.92
2022-08-21T20:50:33.164Z,1.77
2022-08-21T20:54:46.595Z,1.67
2022-08-21T20:58:46.617Z,1.77
2022-08-21T21:02:57.875Z,1.83
2022-08-21T21:06:43.681Z,1.73
2022-08-21T21:10:50.584Z,1.77
2022-08-21T21:14:56.616Z,1.73
2022-08-21T21:18:56.595Z,1.48
2022-08-21T21:22:54.655Z,1.80
2022-08-21T21:26:58.614Z,1.83
2022-08-21T21:30:57.632Z,1.45
2022-08-21T21:34:40.924Z,1.63
2022-08-21T21:38:39.618Z,1.50
2022-08-21T21:43:01.607Z,1.70
2022-08-21T21:47:10.741Z,1.47
2022-08-21T21:55:43.598Z,1.13
2022-08-21T21:59:43.620Z,1.50
2022-08-21T22:03:34.766Z,1.47
2022-08-21T22:07:35.617Z,1.15
2022-08-21T22:15:56.595Z,1.50
2022-08-21T22:19:47.750Z,1.80
2022-08-21T22:23:38.625Z,1.52
2022-08-21T22:27:44.620Z,1.65
2022-08-21T22:31:29.414Z,1.52
2022-08-21T22:35:20.633Z,1.60
2022-08-21T22:39:06.624Z,1.53
2022-08-21T22:43:07.491Z,1.17
2022-08-21T22:46:59.636Z,1.48
2022-08-21T22:50:52.630Z,1.33
2022-08-21T22:54:57.621Z,1.57
2022-08-21T22:59:04.624Z,1.50
2022-08-21T23:02:55.710Z,1.58
2022-08-21T23:06:51.986Z,1.52
2022-08-21T23:10:39.487Z,1.42
2022-08-21T23:14:33.627Z,1.30
2022-08-21T23:18:24.658Z,1.83
2022-08-21T23:22:32.716Z,1.80
2022-08-21T23:26:38.643Z,1.80
2022-08-21T23:30:31.651Z,2.42
2022-08-21T23:34:33.677Z,2.13
2022-08-21T23:38:53.201Z,1.77
2022-08-21T23:42:50.560Z,2.08
2022-08-21T23:47:20.680Z,1.40
2022-08-21T23:51:38.656Z,1.73
